Time;durP1;ratioP1;P1;durP2;ratioP2;P2;SDS_P1;SDS_P2;PMS_P1;PMS_P2;Temp;Humidity;BMP_temperature;BMP_pressure;BME280_temperature;BME280_humidity;BME280_pressure;Samples;Min_cycle;Max_cycle;Signal;HPM_P1;HPM_P2
2022/05/13 00:01:53;;;;;;;;;1.00;1.00;;;;;18.00;82.63;101907.31;4979247;28;46324;-74
2022/05/13 00:04:19;;;;;;;;;1.00;1.00;;;;;17.96;83.09;101901.09;4979193;28;45634;-76
2022/05/13 00:06:44;;;;;;;;;1.00;1.00;;;;;17.97;83.13;101918.00;4973419;28;45619;-75
2022/05/13 00:09:10;;;;;;;;;1.00;1.00;;;;;17.94;83.10;101908.22;4977298;28;45411;-74
2022/05/13 00:11:41;;;;;;;;;2.00;0.00;;;;;17.89;83.39;101904.66;4976709;28;46007;-74
2022/05/13 00:14:09;;;;;;;;;1.00;1.00;;;;;17.89;83.26;101906.44;4976049;28;45566;-74
2022/05/13 00:16:36;;;;;;;;;4.00;1.00;;;;;17.89;83.23;101914.47;4978841;28;45412;-74
2022/05/13 00:19:04;;;;;;;;;1.00;1.00;;;;;17.82;83.67;101905.56;4971193;28;45546;-74
2022/05/13 00:21:29;;;;;;;;;1.00;0.67;;;;;17.83;83.55;101914.47;4972482;28;46539;-74
2022/05/13 00:23:54;;;;;;;;;2.00;1.00;;;;;17.83;83.66;101922.50;4972919;28;47634;-74
2022/05/13 00:26:20;;;;;;;;;0.00;0.00;;;;;17.77;83.50;101910.91;4977028;28;56405;-74
2022/05/13 00:28:46;;;;;;;;;1.00;1.00;;;;;17.77;83.83;101921.59;4969873;28;45623;-74
2022/05/13 00:31:12;;;;;;;;;2.67;1.00;;;;;17.71;83.53;101910.00;4972940;28;65451;-74
2022/05/13 00:33:38;;;;;;;;;2.00;1.00;;;;;17.72;84.00;101915.38;4972718;28;45496;-74
2022/05/13 00:36:04;;;;;;;;;1.00;1.00;;;;;17.70;84.24;101908.22;4976938;28;45502;-74
2022/05/13 00:38:31;;;;;;;;;1.33;1.00;;;;;17.61;84.20;101900.22;4977108;28;45501;-75
2022/05/13 00:40:57;;;;;;;;;2.33;1.33;;;;;17.61;84.11;101903.78;4970571;28;46664;-74
2022/05/13 00:43:44;;;;;;;;;2.00;1.00;;;;;17.62;83.84;101913.56;4976561;28;61331;-73
2022/05/13 00:46:09;;;;;;;;;2.00;0.00;;;;;17.55;83.62;101899.34;4978601;28;45284;-74
2022/05/13 00:48:35;;;;;;;;;2.00;1.00;;;;;17.54;83.46;101896.66;4971355;28;45239;-74
2022/05/13 00:51:00;;;;;;;;;0.00;0.00;;;;;17.54;83.63;101904.69;4972141;28;50822;-75
2022/05/13 00:53:27;;;;;;;;;1.00;1.00;;;;;17.52;83.62;101914.47;4972324;28;45392;-75
2022/05/13 00:55:53;;;;;;;;;2.00;1.00;;;;;17.49;83.79;101918.03;4978132;28;45842;-74
2022/05/13 00:58:19;;;;;;;;;1.00;1.00;;;;;17.46;83.76;101907.34;4977853;28;45210;-74
2022/05/13 01:00:46;;;;;;;;;1.00;1.00;;;;;17.44;84.01;101910.91;4977102;28;46351;-75
2022/05/13 01:03:11;;;;;;;;;1.00;1.00;;;;;17.41;84.14;101914.47;4978391;28;45640;-74
2022/05/13 01:05:38;;;;;;;;;2.67;1.00;;;;;17.36;84.23;101913.56;4976120;28;45498;-74
2022/05/13 01:08:06;;;;;;;;;2.00;1.00;;;;;17.36;84.25;101921.56;4972501;28;45531;-74
2022/05/13 01:10:32;;;;;;;;;2.00;0.00;;;;;17.28;84.21;101907.34;4971927;28;46565;-74
2022/05/13 01:12:58;;;;;;;;;4.33;1.00;;;;;17.32;84.47;101916.25;4977972;28;45374;-74
2022/05/13 01:15:32;;;;;;;;;4.00;2.00;;;;;17.25;84.83;101910.00;4970541;28;45416;-74
2022/05/13 01:18:06;;;;;;;;;1.00;1.00;;;;;17.26;85.04;101909.16;4978491;28;45559;-75
2022/05/13 01:20:36;;;;;;;;;2.00;1.00;;;;;17.23;85.22;101917.13;4985183;28;47437;-74
2022/05/13 01:23:15;;;;;;;;;1.67;0.67;;;;;17.16;85.35;101910.91;4971311;28;45696;-73
2022/05/13 01:25:44;;;;;;;;;2.00;0.00;;;;;17.17;85.40;101918.03;4974418;28;45446;-75
2022/05/13 01:28:13;;;;;;;;;3.33;1.00;;;;;17.10;85.54;101910.91;4977113;28;45314;-74
2022/05/13 01:30:46;;;;;;;;;1.67;1.67;;;;;17.13;85.14;101918.91;4979359;28;47449;-74
2022/05/13 01:33:13;;;;;;;;;1.00;1.00;;;;;17.10;85.52;101913.56;4972699;28;45541;-74
2022/05/13 01:35:40;;;;;;;;;2.00;1.00;;;;;17.07;85.61;101916.22;4974172;28;45496;-74
2022/05/13 01:38:06;;;;;;;;;2.33;1.00;;;;;17.06;85.35;101925.13;4969452;28;45474;-74
2022/05/13 01:40:31;;;;;;;;;0.67;0.67;;;;;17.05;85.59;101925.13;5000347;28;48454;-74
2022/05/13 01:42:56;;;;;;;;;5.00;2.00;;;;;17.01;85.73;101921.56;4975696;28;60695;-74
2022/05/13 01:45:22;;;;;;;;;2.00;1.00;;;;;16.99;85.92;101923.31;4971483;28;57098;-74
2022/05/13 01:47:48;;;;;;;;;3.00;1.00;;;;;16.94;85.82;101914.44;4969098;28;45412;-75
2022/05/13 01:50:13;;;;;;;;;3.67;1.00;;;;;16.94;86.17;101922.44;4978024;28;46687;-74
2022/05/13 01:52:39;;;;;;;;;1.00;1.00;;;;;16.90;86.18;101910.84;4978217;28;45436;-75
2022/05/13 01:55:04;;;;;;;;;2.33;1.00;;;;;16.93;86.51;101908.19;4975839;28;52202;-75
2022/05/13 01:57:31;;;;;;;;;2.00;1.00;;;;;16.87;86.08;101901.94;4977610;28;45615;-74
2022/05/13 01:59:56;;;;;;;;;2.00;1.00;;;;;16.86;86.87;101911.72;4976225;28;47408;-74
2022/05/13 02:02:22;;;;;;;;;2.00;1.00;;;;;16.77;87.08;101904.59;4972459;28;45409;-74
2022/05/13 02:04:47;;;;;;;;;1.67;1.00;;;;;16.78;87.15;101905.50;4977435;28;55291;-74
2022/05/13 02:07:12;;;;;;;;;2.00;1.00;;;;;16.76;87.21;101909.94;4974339;28;45616;-74
2022/05/13 02:09:37;;;;;;;;;1.00;1.00;;;;;16.73;87.59;101908.16;4977355;28;63322;-75
2022/05/13 02:12:03;;;;;;;;;1.00;1.00;;;;;16.71;88.05;101909.91;4975330;28;55644;-74
2022/05/13 02:14:29;;;;;;;;;2.33;2.00;;;;;16.66;88.05;101910.75;4977664;28;45512;-74
2022/05/13 02:16:54;;;;;;;;;1.33;1.33;;;;;16.68;88.68;101915.22;4977262;28;48662;-75
2022/05/13 02:19:19;;;;;;;;;3.00;1.67;;;;;16.67;88.90;101912.53;4971620;28;63331;-74
2022/05/13 02:21:45;;;;;;;;;3.00;1.33;;;;;16.66;88.75;101913.41;4967041;28;45345;-74
2022/05/13 02:24:10;;;;;;;;;3.33;2.00;;;;;16.67;88.86;101920.53;4977048;28;57796;-75
2022/05/13 02:26:36;;;;;;;;;2.00;1.00;;;;;16.62;89.00;101917.88;4975749;28;45584;-74
2022/05/13 02:29:02;;;;;;;;;3.00;2.00;;;;;16.60;89.54;101908.06;4977048;28;47771;-76
2022/05/13 02:31:30;;;;;;;;;2.00;1.00;;;;;16.58;90.00;101907.19;4978564;28;45436;-74
2022/05/13 02:33:58;;;;;;;;;2.00;2.00;;;;;16.60;90.15;101911.63;4972974;28;45609;-74
2022/05/13 02:36:23;;;;;;;;;1.00;1.00;;;;;16.60;90.41;101916.94;4977325;28;45364;-74
2022/05/13 02:38:49;;;;;;;;;1.00;1.00;;;;;16.60;90.70;101914.28;4972522;28;45523;-74
2022/05/13 02:41:14;;;;;;;;;3.00;1.00;;;;;16.61;90.91;101907.16;4971897;28;45439;-75
2022/05/13 02:43:52;;;;;;;;;1.67;1.67;;;;;16.63;91.05;101919.66;4976902;28;45717;-75
2022/05/13 02:46:24;;;;;;;;;2.67;1.33;;;;;16.64;90.29;101917.88;4971458;28;45274;-75
2022/05/13 02:48:50;;;;;;;;;2.67;2.00;;;;;16.60;90.27;101908.94;4974254;28;46569;-75
2022/05/13 02:51:16;;;;;;;;;5.00;2.00;;;;;16.58;90.41;101912.50;4975272;28;52011;-74
2022/05/13 02:53:42;;;;;;;;;2.00;2.00;;;;;16.56;90.14;101915.16;4977066;28;45487;-75
2022/05/13 02:56:07;;;;;;;;;3.00;3.00;;;;;16.52;90.14;101909.84;4976981;28;45701;-74
2022/05/13 02:58:34;;;;;;;;;2.67;2.00;;;;;16.45;89.76;101912.44;4970552;28;46522;-74
2022/05/13 03:01:02;;;;;;;;;3.00;2.00;;;;;16.47;89.72;101915.13;4968026;28;45199;-74
2022/05/13 03:03:28;;;;;;;;;3.67;1.00;;;;;16.45;89.58;101899.13;4973133;28;45392;-75
2022/05/13 03:05:53;;;;;;;;;5.00;2.00;;;;;16.42;90.10;101917.78;4977225;28;45419;-74
2022/05/13 03:08:19;;;;;;;;;1.67;1.00;;;;;16.37;90.27;101907.97;4974407;28;46455;-75
2022/05/13 03:10:44;;;;;;;;;2.00;2.00;;;;;16.36;90.24;101914.22;4975272;28;45603;-75
2022/05/13 03:13:10;;;;;;;;;3.00;3.00;;;;;16.33;90.30;101911.50;4968453;28;45315;-74
2022/05/13 03:15:35;;;;;;;;;6.00;4.00;;;;;16.28;90.66;101907.94;4975460;28;45225;-74
2022/05/13 03:18:01;;;;;;;;;3.00;3.00;;;;;16.25;91.20;101911.50;4973206;28;46072;-73
2022/05/13 03:20:27;;;;;;;;;4.00;3.00;;;;;16.20;90.63;101911.47;4975253;28;47197;-73
2022/05/13 03:22:52;;;;;;;;;4.00;4.00;;;;;16.22;91.26;101916.78;4976336;28;45350;-74
2022/05/13 03:25:19;;;;;;;;;5.67;3.00;;;;;16.18;91.56;101909.66;4968566;28;45543;-74
2022/05/13 03:27:45;;;;;;;;;5.00;4.00;;;;;16.16;92.25;101907.00;4975226;28;46864;-75
2022/05/13 03:30:14;;;;;;;;;5.00;5.00;;;;;16.12;92.53;101906.97;4973041;28;45286;-74
2022/05/13 03:32:40;;;;;;;;;9.00;4.00;;;;;16.10;93.13;101914.97;4971900;28;45337;-74
2022/05/13 03:35:08;;;;;;;;;7.00;6.00;;;;;16.07;93.51;101912.25;4976767;28;45376;-74
2022/05/13 03:37:34;;;;;;;;;5.33;3.67;;;;;16.02;93.17;101907.78;4971103;28;45643;-74
2022/05/13 03:39:59;;;;;;;;;3.67;3.67;;;;;16.01;93.68;101911.34;4976371;28;45972;-74
2022/05/13 03:42:25;;;;;;;;;10.00;7.00;;;;;15.98;94.10;101913.13;4975988;28;45496;-74
2022/05/13 03:44:50;;;;;;;;;10.33;7.00;;;;;15.93;94.57;101909.53;4976510;28;45828;-73
2022/05/13 03:47:16;;;;;;;;;8.33;6.00;;;;;15.94;95.04;101911.31;4970904;28;46515;-74
2022/05/13 03:49:42;;;;;;;;;6.33;5.00;;;;;15.90;94.72;101920.16;4976203;28;45306;-74
2022/05/13 03:52:09;;;;;;;;;9.33;6.00;;;;;15.95;95.12;101923.75;4974791;28;45390;-75
2022/05/13 03:54:34;;;;;;;;;7.67;6.00;;;;;15.88;95.24;101919.28;4975891;28;45337;-74
2022/05/13 03:56:59;;;;;;;;;9.00;4.33;;;;;15.91;95.41;101923.72;4983875;28;46977;-74
2022/05/13 03:59:25;;;;;;;;;4.00;4.00;;;;;15.89;95.53;101923.72;4968080;28;51078;-74
2022/05/13 04:01:50;;;;;;;;;5.33;3.00;;;;;15.85;95.59;101916.56;4971095;28;45463;-74
2022/05/13 04:04:20;;;;;;;;;3.33;2.33;;;;;15.85;95.17;101927.22;4975398;28;51340;-74
2022/05/13 04:09:29;;;;;;;;;5.00;4.00;;;;;15.76;95.63;101916.50;4975998;28;45440;-73
2022/05/13 04:17:22;;;;;;;;;4.33;3.33;;;;;15.66;96.34;101914.69;4975970;28;45703;-74
2022/05/13 04:19:48;;;;;;;;;4.33;4.33;;;;;15.66;96.74;101920.91;4972560;28;52068;-76
2022/05/13 04:22:13;;;;;;;;;7.00;2.67;;;;;15.69;96.86;101925.34;4975371;28;45418;-75
2022/05/13 04:24:39;;;;;;;;;3.00;3.00;;;;;15.69;96.57;101930.66;4970946;28;45502;-76
2022/05/13 04:27:05;;;;;;;;;5.00;4.00;;;;;15.65;96.73;101935.06;4972630;28;46085;-74
2022/05/13 04:29:30;;;;;;;;;5.00;4.33;;;;;15.66;96.91;101936.88;4975146;28;45443;-74
2022/05/13 04:31:55;;;;;;;;;6.00;3.00;;;;;15.61;97.62;101938.56;4973812;28;45540;-74
2022/05/13 04:34:21;;;;;;;;;3.00;3.00;;;;;15.59;97.47;101934.97;4974057;28;50349;-74
2022/05/13 04:36:46;;;;;;;;;5.00;3.67;;;;;15.62;97.88;101950.09;4970062;28;59674;-73
2022/05/13 04:39:13;;;;;;;;;3.00;3.00;;;;;15.61;97.79;101940.34;4971662;28;45293;-74
2022/05/13 04:44:23;;;;;;;;;3.00;3.00;;;;;15.61;98.35;101938.56;4976582;28;45384;-73
2022/05/13 04:46:48;;;;;;;;;3.00;3.00;;;;;15.64;98.79;101948.38;4973328;28;45937;-72
2022/05/13 04:49:14;;;;;;;;;4.33;4.00;;;;;15.62;97.98;101945.66;4970707;28;62331;-73
2022/05/13 04:51:40;;;;;;;;;3.67;3.00;;;;;15.61;98.83;101935.03;4974006;28;54535;-73
2022/05/13 04:54:06;;;;;;;;;6.00;3.00;;;;;15.68;98.71;101947.53;4978221;28;45306;-72
2022/05/13 04:56:32;;;;;;;;;2.00;0.00;;;;;15.69;99.28;101952.84;4971967;28;47373;-74
2022/05/13 04:58:58;;;;;;;;;6.00;3.00;;;;;15.71;99.34;101955.50;4972461;28;46497;-73
2022/05/13 05:01:24;;;;;;;;;4.00;3.00;;;;;15.70;100.00;101957.28;4986248;28;45348;-73
2022/05/13 05:03:50;;;;;;;;;5.00;3.67;;;;;15.71;99.20;101956.44;4977704;28;45674;-74
2022/05/13 05:06:17;;;;;;;;;4.33;3.00;;;;;15.75;99.75;101967.97;4974787;28;46337;-73
2022/05/13 05:08:43;;;;;;;;;4.33;3.00;;;;;15.78;100.00;101968.03;4972852;28;45558;-75
2022/05/13 05:11:10;;;;;;;;;5.67;3.00;;;;;15.78;100.00;101967.13;4976731;28;45448;-73
2022/05/13 05:13:38;;;;;;;;;3.67;3.00;;;;;15.79;100.00;101968.91;4977982;28;45368;-73
2022/05/13 05:16:06;;;;;;;;;5.67;2.00;;;;;15.74;100.00;101958.22;4977129;28;47107;-73
2022/05/13 05:18:32;;;;;;;;;4.67;3.00;;;;;15.80;100.00;101976.00;4975668;28;45471;-73
2022/05/13 05:20:57;;;;;;;;;3.33;2.00;;;;;15.78;100.00;101969.78;4974553;28;45739;-73
2022/05/13 05:23:28;;;;;;;;;7.00;3.00;;;;;15.76;100.00;101971.53;4970942;28;51522;-73
2022/05/13 05:25:54;;;;;;;;;2.67;2.67;;;;;15.75;100.00;101962.66;4975269;28;46734;-73
2022/05/13 05:28:19;;;;;;;;;5.67;3.67;;;;;15.79;100.00;101980.44;5082000;23;45537;-74
2022/05/13 05:30:45;;;;;;;;;3.67;2.00;;;;;15.83;100.00;101989.38;4978015;28;45461;-73
2022/05/13 05:33:11;;;;;;;;;3.67;3.00;;;;;15.78;100.00;101980.44;4975220;28;45619;-73
2022/05/13 05:35:37;;;;;;;;;5.33;3.00;;;;;15.76;100.00;101984.84;4977398;28;45710;-73
2022/05/13 05:38:03;;;;;;;;;4.67;3.00;;;;;15.79;100.00;101991.09;4993668;28;45547;-73
2022/05/13 05:40:29;;;;;;;;;5.00;3.33;;;;;15.80;100.00;101997.31;4998941;28;45285;-73
2022/05/13 05:42:54;;;;;;;;;3.67;2.67;;;;;15.67;100.00;101975.94;4971678;28;45943;-74
2022/05/13 05:45:21;;;;;;;;;7.00;3.00;;;;;15.74;100.00;101987.50;4975742;28;46132;-74
2022/05/13 05:47:47;;;;;;;;;5.33;3.00;;;;;15.76;100.00;101992.84;4972067;28;45448;-73
2022/05/13 05:50:17;;;;;;;;;8.33;2.00;;;;;15.73;100.00;101996.38;4976480;28;45475;-72
2022/05/13 05:52:43;;;;;;;;;7.67;6.00;;;;;15.70;100.00;101991.03;4977962;28;45517;-73
2022/05/13 05:58:02;;;;;;;;;7.00;3.00;;;;;15.76;100.00;102009.69;4966386;28;45433;-73
2022/05/13 06:00:30;;;;;;;;;3.33;3.00;;;;;15.76;100.00;102011.47;4977690;28;45526;-73
2022/05/13 06:02:55;;;;;;;;;4.33;4.00;;;;;15.77;100.00;102018.63;4968863;28;45606;-73
2022/05/13 06:05:21;;;;;;;;;9.00;6.00;;;;;15.77;100.00;102014.19;4973650;28;46211;-72
2022/05/13 06:07:47;;;;;;;;;7.00;4.00;;;;;15.78;100.00;102015.97;4970776;28;45551;-72
2022/05/13 06:10:13;;;;;;;;;6.33;3.00;;;;;15.77;100.00;102015.94;4976499;28;45233;-73
2022/05/13 06:12:40;;;;;;;;;6.33;3.00;;;;;15.80;100.00;102019.50;4972028;28;45487;-73
2022/05/13 06:15:06;;;;;;;;;6.00;3.33;;;;;15.77;100.00;102026.59;4962964;28;45831;-73
2022/05/13 06:17:31;;;;;;;;;5.00;2.00;;;;;15.75;100.00;102034.56;4972983;28;46049;-72
2022/05/13 06:19:56;;;;;;;;;3.67;2.00;;;;;15.71;100.00;102035.41;4972826;28;50596;-73
2022/05/13 06:22:22;;;;;;;;;7.00;3.00;;;;;15.73;100.00;102043.44;4966573;28;56046;-73
2022/05/13 06:24:47;;;;;;;;;5.33;2.00;;;;;15.68;100.00;102022.06;4973213;28;58443;-73
2022/05/13 06:27:12;;;;;;;;;6.00;5.00;;;;;15.69;100.00;102035.41;4972289;28;45435;-73
2022/05/13 06:29:38;;;;;;;;;2.67;2.67;;;;;15.68;100.00;102024.75;4968209;28;51078;-72
2022/05/13 06:32:04;;;;;;;;;7.67;3.00;;;;;15.75;100.00;102031.00;4975346;28;45415;-72
2022/05/13 06:34:29;;;;;;;;;5.33;2.67;;;;;15.77;100.00;102040.81;4974231;28;45361;-73
2022/05/13 06:36:55;;;;;;;;;4.33;3.00;;;;;15.75;100.00;102041.66;4973858;28;61737;-72
2022/05/13 06:39:20;;;;;;;;;3.00;3.00;;;;;15.75;100.00;102031.91;4973651;28;56223;-73
2022/05/13 06:41:46;;;;;;;;;6.00;4.00;;;;;15.77;100.00;102035.47;4976122;28;45519;-73
2022/05/13 06:44:13;;;;;;;;;4.00;4.00;;;;;15.79;100.00;102040.81;4974359;28;46771;-73
2022/05/13 06:46:39;;;;;;;;;4.00;2.33;;;;;15.89;100.00;102050.66;4976803;28;45523;-74
2022/05/13 06:49:10;;;;;;;;;7.33;3.33;;;;;15.93;100.00;102036.50;4966470;28;45271;-75
2022/05/13 06:51:35;;;;;;;;;7.00;2.33;;;;;15.98;100.00;102040.09;4973483;28;45546;-74
2022/05/13 06:54:04;;;;;;;;;5.67;2.00;;;;;16.04;100.00;102057.91;4970928;28;52009;-74
2022/05/13 06:56:33;;;;;;;;;5.33;2.33;;;;;16.08;100.00;102055.25;4966514;28;46009;-73
2022/05/13 06:58:58;;;;;;;;;2.00;2.00;;;;;16.08;100.00;102047.25;4968107;28;46377;-74
2022/05/13 07:01:24;;;;;;;;;4.67;2.00;;;;;16.15;100.00;102061.53;4976837;28;45469;-74
2022/05/13 07:03:49;;;;;;;;;5.67;3.00;;;;;16.17;100.00;102058.00;4980276;28;45742;-74
2022/05/13 07:06:15;;;;;;;;;4.00;2.33;;;;;16.21;100.00;102059.81;4971103;28;45590;-73
2022/05/13 07:08:40;;;;;;;;;7.67;3.00;;;;;16.24;100.00;102058.94;4975855;28;51907;-73
2022/05/13 07:11:06;;;;;;;;;2.00;2.00;;;;;16.26;100.00;102057.19;4973563;28;45526;-73
2022/05/13 07:13:32;;;;;;;;;3.67;2.00;;;;;16.33;100.00;102061.66;4969259;28;47532;-73
2022/05/13 07:15:58;;;;;;;;;5.67;2.33;;;;;16.35;100.00;102059.00;4970166;28;47057;-72
2022/05/13 07:18:23;;;;;;;;;4.00;2.33;;;;;16.41;100.00;102064.41;4973268;28;45364;-72
2022/05/13 07:20:49;;;;;;;;;11.00;3.00;;;;;16.44;100.00;102056.41;4974314;28;45290;-73
2022/05/13 07:23:15;;;;;;;;;4.00;1.67;;;;;16.53;100.00;102061.81;4972411;28;61416;-74
2022/05/13 07:25:40;;;;;;;;;3.33;2.00;;;;;16.57;100.00;102057.41;4972149;28;45478;-73
2022/05/13 07:28:06;;;;;;;;;4.33;2.00;;;;;16.61;100.00;102060.06;4975033;28;45444;-73
2022/05/13 07:30:31;;;;;;;;;3.00;3.00;;;;;16.67;100.00;102056.53;4968848;28;45320;-74
2022/05/13 07:32:57;;;;;;;;;2.67;1.33;;;;;16.72;100.00;102061.06;4969085;28;46426;-74
2022/05/13 07:35:22;;;;;;;;;1.00;1.00;;;;;16.76;100.00;102060.19;4965078;28;45618;-74
2022/05/13 07:37:47;;;;;;;;;1.00;1.00;;;;;16.83;100.00;102069.13;4972846;28;45460;-74
2022/05/13 07:42:57;;;;;;;;;2.00;2.00;;;;;16.89;100.00;102058.47;4967358;28;45563;-74
2022/05/13 07:45:22;;;;;;;;;2.00;2.00;;;;;16.97;100.00;102064.72;4965820;28;45500;-73
2022/05/13 07:47:48;;;;;;;;;4.67;4.00;;;;;16.98;100.00;102060.28;4968859;28;45594;-75
2022/05/13 07:50:14;;;;;;;;;4.33;1.33;;;;;17.06;100.00;102084.34;4974337;28;45511;-73
2022/05/13 07:52:40;;;;;;;;;3.67;3.00;;;;;17.07;100.00;102073.66;4971916;28;46412;-73
2022/05/13 07:55:11;;;;;;;;;3.67;3.00;;;;;17.06;100.00;102074.56;4970593;28;45461;-74
2022/05/13 07:57:40;;;;;;;;;2.00;2.00;;;;;17.09;100.00;102074.56;4973862;28;46137;-74
2022/05/13 08:00:25;;;;;;;;;3.00;2.00;;;;;17.11;100.00;102075.47;4971165;28;45494;-74
2022/05/13 08:02:52;;;;;;;;;3.00;3.00;;;;;17.14;100.00;102070.13;4987045;28;46073;-73
2022/05/13 08:05:17;;;;;;;;;1.67;1.33;;;;;17.16;100.00;102067.50;4971113;28;45369;-74
2022/05/13 08:07:43;;;;;;;;;8.67;8.67;;;;;17.18;100.00;102061.25;4971118;28;45737;-73
2022/05/13 08:10:09;;;;;;;;;5.33;2.00;;;;;17.25;100.00;102071.06;4988787;28;45439;-73
2022/05/13 08:12:34;;;;;;;;;4.00;2.33;;;;;17.30;100.00;102076.41;4971702;28;46414;-73
2022/05/13 08:14:59;;;;;;;;;4.00;4.00;;;;;17.33;100.00;102073.78;4974369;28;63712;-72
2022/05/13 08:17:25;;;;;;;;;5.67;3.33;;;;;17.38;100.00;102064.00;4971691;28;58889;-74
2022/05/13 08:19:51;;;;;;;;;5.67;2.33;;;;;17.41;100.00;102060.44;4974819;28;45459;-73
2022/05/13 08:22:17;;;;;;;;;2.00;2.00;;;;;17.43;100.00;102054.22;4975174;28;66480;-72
2022/05/13 08:24:42;;;;;;;;;2.00;2.00;;;;;17.49;100.00;102061.34;4970781;28;61686;-74
2022/05/13 08:27:09;;;;;;;;;4.00;2.00;;;;;17.53;100.00;102065.81;4973692;28;45456;-74
2022/05/13 08:29:34;;;;;;;;;4.33;2.00;;;;;17.62;100.00;102064.91;4968541;28;45581;-73
2022/05/13 08:31:59;;;;;;;;;2.33;2.00;;;;;17.70;100.00;102057.81;4972255;28;64290;-73
2022/05/13 08:34:25;;;;;;;;;2.33;2.33;;;;;17.76;100.00;102063.19;4976037;28;45501;-73
2022/05/13 08:36:50;;;;;;;;;3.00;2.00;;;;;17.78;100.00;102062.31;4975927;28;45365;-73
2022/05/13 08:39:16;;;;;;;;;3.33;3.00;;;;;17.83;100.00;102064.97;4978281;28;45565;-74
2022/05/13 08:41:47;;;;;;;;;6.00;2.00;;;;;17.84;100.00;102072.09;4977089;28;47298;-73
2022/05/13 08:44:14;;;;;;;;;5.00;2.00;;;;;17.82;99.96;102059.66;4977454;28;45400;-74
2022/05/13 08:47:02;;;;;;;;;1.00;1.00;;;;;17.89;99.73;102072.09;4975987;28;45367;-73
2022/05/13 08:49:46;;;;;;;;;4.00;2.33;;;;;17.95;99.71;102062.34;4976546;28;45433;-73
2022/05/13 08:54:59;;;;;;;;;2.33;2.00;;;;;18.02;98.21;102063.22;4973916;28;45463;-73
2022/05/13 08:57:27;;;;;;;;;2.67;1.33;;;;;18.01;97.23;102054.31;4972079;28;45998;-73
2022/05/13 08:59:59;;;;;;;;;3.00;1.33;;;;;18.01;96.58;102059.66;4992684;28;45602;-73
2022/05/13 09:02:33;;;;;;;;;1.00;1.00;;;;;18.04;95.86;102064.97;4968530;28;46267;-75
2022/05/13 09:05:23;;;;;;;;;2.00;1.00;;;;;17.94;94.96;102056.97;4969003;28;45429;-74
2022/05/13 09:07:51;;;;;;;;;2.00;1.00;;;;;18.02;94.10;102063.22;4969879;28;45509;-74
2022/05/13 09:10:17;;;;;;;;;1.00;1.00;;;;;18.07;91.58;102066.78;4970897;28;45615;-72
2022/05/13 09:13:04;;;;;;;;;4.00;1.00;;;;;18.12;91.38;102064.13;4976923;28;46305;-72
2022/05/13 09:15:38;;;;;;;;;0.00;0.00;;;;;18.16;85.18;102061.41;4975296;28;45495;-73
2022/05/13 09:18:22;;;;;;;;;2.00;1.00;;;;;18.23;87.91;102060.53;4975548;28;45594;-73
2022/05/13 09:20:55;;;;;;;;;2.00;2.00;;;;;18.31;87.79;102066.75;4974358;28;45606;-73
2022/05/13 09:23:21;;;;;;;;;4.00;1.00;;;;;18.41;83.93;102064.06;4974958;28;46961;-73
2022/05/13 09:25:59;;;;;;;;;1.00;1.00;;;;;18.50;84.96;102064.06;4975618;28;45509;-75
2022/05/13 09:28:26;;;;;;;;;1.00;1.00;;;;;18.48;84.61;102061.41;4972679;28;45734;-73
2022/05/13 09:30:55;;;;;;;;;3.00;1.67;;;;;18.49;83.83;102057.81;4974554;28;45312;-73
2022/05/13 09:33:26;;;;;;;;;1.00;1.00;;;;;18.49;84.65;102068.53;4977226;28;47574;-74
2022/05/13 09:35:54;;;;;;;;;3.00;0.33;;;;;18.50;83.14;102058.72;4968398;28;45612;-74
2022/05/13 09:38:24;;;;;;;;;2.00;0.67;;;;;18.52;82.18;102063.16;4965673;28;45476;-73
2022/05/13 09:41:05;;;;;;;;;2.33;0.33;;;;;18.58;79.53;102057.78;4969608;28;45515;-74
2022/05/13 09:43:51;;;;;;;;;1.00;1.00;;;;;18.65;80.84;102047.09;4976440;28;46897;-73
2022/05/13 09:46:23;;;;;;;;;1.67;1.00;;;;;18.75;81.75;102047.09;4975790;28;45514;-74
2022/05/13 09:48:56;;;;;;;;;6.00;1.33;;;;;18.81;81.86;102041.72;4968454;28;46532;-75
2022/05/13 09:51:25;;;;;;;;;3.00;0.33;;;;;19.05;80.94;102047.84;4962950;28;45643;-76
2022/05/13 09:54:05;;;;;;;;;2.33;0.33;;;;;19.20;80.74;102054.91;4976860;28;47097;-73
2022/05/13 09:56:38;;;;;;;;;0.33;0.33;;;;;19.25;80.91;102042.41;4975661;28;45503;-73
2022/05/13 09:59:06;;;;;;;;;0.67;0.67;;;;;19.33;81.07;102041.47;4974451;28;45495;-73
2022/05/13 10:01:31;;;;;;;;;0.67;0.67;;;;;19.37;78.87;102045.00;4975683;28;45519;-75
2022/05/13 10:04:11;;;;;;;;;1.00;1.00;;;;;19.44;78.98;102043.16;4974053;28;54649;-75
2022/05/13 10:06:37;;;;;;;;;3.00;1.33;;;;;19.45;79.87;102037.81;4973800;28;45306;-71
2022/05/13 10:14:39;;;;;;;;;0.33;0.33;;;;;19.59;78.00;102038.63;4973287;28;45558;-74
2022/05/13 10:17:24;;;;;;;;;2.67;1.33;;;;;19.71;77.57;102040.34;4970958;28;45507;-73
2022/05/13 10:19:57;;;;;;;;;1.67;0.00;;;;;19.78;77.41;102023.31;4970262;28;45270;-75
2022/05/13 10:22:45;;;;;;;;;1.00;1.00;;;;;19.95;77.04;102039.25;4975590;28;45598;-73
2022/05/13 10:25:24;;;;;;;;;0.33;0.33;;;;;19.99;75.68;102027.59;4975213;28;47407;-73
2022/05/13 10:28:00;;;;;;;;;3.00;0.00;;;;;19.99;75.36;102024.94;4973726;28;45519;-72
2022/05/13 10:30:35;;;;;;;;;1.00;1.00;;;;;19.91;75.55;102025.88;4984729;28;46632;-75
2022/05/13 10:33:10;;;;;;;;;2.00;0.00;;;;;19.87;76.38;102025.03;4986557;28;45583;-74
2022/05/13 10:36:04;;;;;;;;;0.00;0.00;;;;;19.87;76.07;102025.03;4974116;28;46588;-71
2022/05/13 10:38:35;;;;;;;;;3.00;1.67;;;;;19.86;75.78;102024.13;4974119;28;45500;-74
2022/05/13 10:41:16;;;;;;;;;1.00;1.00;;;;;19.82;74.63;102022.41;4972763;28;45387;-73
2022/05/13 10:44:04;;;;;;;;;0.00;0.00;;;;;19.81;74.52;102019.69;4971749;28;45499;-74
2022/05/13 10:46:56;;;;;;;;;0.33;0.00;;;;;19.79;73.96;102019.72;4973857;28;46549;-74
2022/05/13 10:49:38;;;;;;;;;1.00;1.00;;;;;19.77;74.31;102005.47;4968327;28;45547;-72
2022/05/13 10:52:12;;;;;;;;;4.67;1.00;;;;;19.81;71.24;102017.03;4991479;28;46169;-73
2022/05/13 10:54:53;;;;;;;;;1.67;1.67;;;;;19.81;74.31;102008.97;4973364;28;45499;-74
2022/05/13 10:57:24;;;;;;;;;3.33;1.00;;;;;19.85;74.21;102011.63;4974029;28;47497;-72
2022/05/13 11:00:05;;;;;;;;;1.00;0.00;;;;;19.89;73.92;102015.19;4973006;28;45245;-74
2022/05/13 11:02:34;;;;;;;;;3.00;1.67;;;;;19.93;73.51;102016.06;4967877;28;45611;-72
2022/05/13 11:05:07;;;;;;;;;3.00;2.00;;;;;19.91;73.68;101993.72;4976695;28;45451;-74
2022/05/13 11:08:33;;;;;;;;;3.00;2.00;;;;;19.98;73.27;101999.03;4985647;28;46511;-73
2022/05/13 11:11:17;;;;;;;;;1.00;1.00;;;;;20.04;73.00;101996.28;4890224;29;45441;-74
2022/05/13 11:13:43;;;;;;;;;1.33;1.33;;;;;20.09;72.64;101998.91;4894794;29;45637;-75
2022/05/13 11:16:36;;;;;;;;;0.67;0.67;;;;;20.16;72.66;101997.94;4941450;28;45558;-73
2022/05/13 11:19:09;;;;;;;;;2.00;2.00;;;;;20.23;72.89;102009.50;4976187;28;47611;-73
2022/05/13 11:22:05;;;;;;;;;3.00;1.00;;;;;20.27;72.03;102000.50;4969682;28;45382;-74
2022/05/13 11:28:28;;;;;;;;;1.00;1.00;;;;;20.48;70.12;102000.31;4965013;28;45283;-74
2022/05/13 11:31:02;;;;;;;;;0.00;0.00;;;;;20.53;70.60;101990.41;4967795;28;46439;-74
2022/05/13 11:33:45;;;;;;;;;2.00;2.00;;;;;20.57;70.57;101989.50;4976540;28;45479;-73
2022/05/13 11:36:28;;;;;;;;;2.67;1.00;;;;;20.68;71.06;101994.72;4965933;28;45286;-74
2022/05/13 11:39:10;;;;;;;;;2.33;2.00;;;;;20.79;70.81;101995.47;4974732;28;45393;-74
2022/05/13 11:42:13;;;;;;;;;4.00;1.67;;;;;20.86;70.16;101981.06;4971067;28;47516;-75
2022/05/13 11:45:10;;;;;;;;;3.67;1.00;;;;;21.00;68.81;101985.38;4965343;28;45221;-75
2022/05/13 11:47:38;;;;;;;;;1.00;1.00;;;;;21.15;68.08;101983.34;4970345;28;45501;-74
2022/05/13 11:50:04;;;;;;;;;2.00;2.00;;;;;21.28;69.02;101994.78;4974971;28;45306;-72
2022/05/13 11:52:49;;;;;;;;;4.00;1.00;;;;;21.40;68.80;101980.31;4963257;28;46476;-73
2022/05/13 11:55:42;;;;;;;;;1.00;1.00;;;;;21.53;68.58;101983.72;4973285;28;45435;-74
2022/05/13 11:58:09;;;;;;;;;1.00;1.00;;;;;21.61;67.16;101977.28;4968558;28;45542;-73
2022/05/13 12:00:38;;;;;;;;;1.00;1.00;;;;;21.67;65.49;101977.16;4968174;28;46378;-74